createdAt,value
2022-12-19T07:06:14.750Z,29.23
2022-12-19T07:09:18.151Z,24.37
2022-12-19T07:12:20.514Z,57.67
2022-12-19T07:15:23.755Z,27.45
2022-12-19T07:18:28.805Z,46.47
2022-12-19T07:21:31.153Z,50.28
2022-12-19T07:24:35.185Z,69.97
2022-12-19T07:27:39.520Z,39.38
2022-12-19T07:30:45.177Z,40.45
2022-12-19T07:33:50.024Z,35.92
2022-12-19T07:36:57.636Z,43.08
2022-12-19T07:40:00.121Z,35.80
2022-12-19T07:43:04.598Z,51.97
2022-12-19T07:46:07.133Z,50.92
2022-12-19T07:49:10.051Z,27.00
2022-12-19T07:52:12.341Z,29.17
2022-12-19T07:55:14.743Z,29.23
2022-12-19T07:58:17.662Z,22.98
2022-12-19T08:01:20.571Z,24.20
2022-12-19T08:04:23.790Z,26.38
2022-12-19T08:11:35.985Z,29.07
2022-12-19T08:14:38.836Z,12.82
2022-12-19T08:17:45.527Z,22.55
2022-12-19T08:20:48.050Z,25.77
2022-12-19T08:23:50.561Z,30.65
2022-12-19T08:26:53.061Z,24.73
2022-12-19T08:29:55.629Z,20.65
2022-12-19T08:32:58.074Z,28.90
2022-12-19T08:36:07.110Z,36.35
2022-12-19T08:39:09.743Z,35.28
2022-12-19T08:42:12.032Z,26.50
2022-12-19T08:45:14.429Z,24.45
2022-12-19T08:48:17.857Z,28.98
2022-12-19T08:51:20.724Z,21.00
2022-12-19T08:54:23.222Z,26.88
2022-12-19T08:57:26.705Z,32.57
2022-12-19T09:00:28.993Z,22.33
2022-12-19T09:03:33.367Z,18.05
2022-12-19T09:06:50.643Z,28.00
2022-12-19T09:09:56.149Z,27.42
2022-12-19T09:12:58.887Z,21.17
2022-12-19T09:16:14.741Z,14.60
2022-12-19T09:19:17.124Z,26.35
2022-12-19T09:22:19.604Z,29.23
2022-12-19T09:25:21.911Z,32.33
2022-12-19T09:28:27.693Z,22.70
2022-12-19T09:31:30.493Z,30.95
2022-12-19T09:34:38.177Z,28.42
2022-12-19T09:37:41.461Z,20.98
2022-12-19T09:41:21.846Z,24.75
2022-12-19T09:44:33.261Z,18.00
2022-12-19T09:47:39.463Z,23.58
2022-12-19T09:50:52.054Z,31.40
2022-12-19T09:54:13.640Z,26.48
2022-12-19T09:57:19.007Z,31.75
2022-12-19T10:00:22.958Z,26.90
2022-12-19T10:03:39.752Z,28.42
2022-12-19T10:07:10.430Z,30.77
2022-12-19T10:12:46.089Z,27.00
2022-12-19T10:14:04.725Z,29.35
2022-12-19T10:17:25.155Z,22.83
2022-12-19T10:20:32.752Z,22.83
2022-12-19T10:28:06.250Z,27.67
2022-12-19T10:31:35.077Z,25.50
2022-12-19T10:34:44.898Z,21.53
2022-12-19T10:38:11.824Z,20.50
2022-12-19T10:41:19.130Z,22.00
2022-12-19T10:44:24.777Z,24.25
2022-12-19T10:47:28.317Z,22.15
2022-12-19T10:50:36.613Z,28.87
2022-12-19T10:53:39.082Z,20.38
2022-12-19T10:56:41.398Z,19.27
2022-12-19T11:00:12.933Z,19.73
2022-12-19T11:03:43.838Z,24.50
2022-12-19T11:15:31.404Z,25.98
2022-12-19T11:21:12.259Z,27.70
2022-12-19T11:29:31.566Z,21.98
2022-12-19T11:29:32.070Z,27.90
2022-12-19T11:30:43.365Z,25.23
2022-12-19T11:34:06.986Z,19.00
2022-12-19T11:37:24.427Z,24.15
2022-12-19T11:40:59.009Z,24.63
2022-12-19T11:44:11.976Z,21.77
2022-12-19T11:47:39.907Z,28.13
2022-12-19T11:51:20.979Z,25.95
2022-12-19T11:55:03.251Z,23.10
2022-12-19T11:58:05.579Z,28.20
2022-12-19T12:01:16.761Z,24.80
2022-12-19T12:04:31.405Z,20.75
2022-12-19T12:08:44.437Z,28.75
2022-12-19T12:19:41.012Z,28.90
2022-12-19T12:25:20.485Z,22.45
2022-12-19T12:31:23.146Z,30.27
2022-12-19T12:31:26.891Z,33.73
2022-12-19T12:31:42.622Z,27.42
2022-12-19T12:32:00.732Z,23.75
2022-12-19T12:35:43.565Z,20.77
2022-12-19T12:40:02.574Z,28.65
2022-12-19T12:43:31.683Z,28.65
2022-12-19T12:47:02.994Z,23.88
2022-12-19T12:50:09.191Z,19.27
2022-12-19T12:53:17.112Z,20.67
2022-12-19T12:56:32.309Z,25.00
2022-12-19T12:59:34.723Z,27.30
2022-12-19T13:02:37.307Z,24.15
2022-12-19T13:05:47.271Z,31.38
2022-12-19T13:08:50.266Z,22.40
2022-12-19T13:12:32.818Z,27.55
2022-12-19T13:15:40.041Z,22.10
2022-12-19T13:19:04.559Z,18.00
2022-12-19T13:22:07.712Z,23.52
2022-12-19T13:25:50.611Z,24.33
2022-12-19T13:29:30.393Z,19.25
2022-12-19T13:39:54.165Z,21.42
2022-12-19T13:42:29.341Z,35.55
2022-12-19T13:45:33.373Z,18.67
2022-12-19T13:48:45.071Z,17.90
2022-12-19T13:51:49.489Z,23.08
2022-12-19T13:54:57.076Z,32.20
2022-12-19T13:58:30.092Z,37.80
2022-12-19T14:01:35.694Z,19.47
2022-12-19T14:04:41.232Z,16.17
2022-12-19T14:07:43.620Z,30.30
2022-12-19T14:11:38.729Z,27.23
2022-12-19T14:14:35.581Z,26.23
2022-12-19T14:17:37.924Z,36.63
2022-12-19T14:28:15.371Z,36.08
2022-12-19T14:34:43.327Z,34.58
2022-12-19T14:37:37.140Z,25.33
2022-12-19T14:41:09.195Z,32.03
2022-12-19T14:54:05.643Z,34.47
2022-12-19T14:54:10.264Z,41.08
2022-12-19T14:54:40.652Z,32.42
2022-12-19T14:58:52.849Z,48.72
2022-12-19T15:01:27.730Z,43.67
2022-12-19T15:04:52.946Z,45.95
2022-12-19T15:08:01.351Z,47.40
2022-12-19T15:11:44.480Z,46.87
2022-12-19T15:14:59.015Z,46.88
2022-12-19T15:18:04.505Z,41.78
2022-12-19T15:21:10.195Z,41.70
2022-12-19T15:24:13.198Z,40.63
2022-12-19T15:28:02.879Z,42.47
2022-12-19T15:31:46.353Z,48.00
2022-12-19T15:35:25.068Z,44.13
2022-12-19T15:39:18.321Z,36.65
2022-12-19T15:42:37.216Z,46.00
2022-12-19T15:45:46.128Z,42.97
2022-12-19T15:48:52.162Z,41.55
2022-12-19T15:52:30.627Z,46.20
2022-12-19T15:55:33.055Z,42.53
2022-12-19T16:16:37.066Z,47.40
2022-12-19T16:19:41.852Z,44.80
2022-12-19T16:22:44.222Z,51.87
2022-12-19T16:26:32.657Z,47.40
2022-12-19T16:34:51.568Z,47.42
2022-12-19T16:37:54.025Z,53.20
2022-12-19T16:41:54.448Z,55.80
2022-12-19T16:44:56.975Z,46.67
2022-12-19T16:48:10.994Z,43.13
2022-12-19T16:51:41.157Z,39.55
2022-12-19T17:11:18.295Z,39.63
2022-12-19T17:14:27.512Z,33.83
2022-12-19T17:17:29.862Z,41.80
2022-12-19T17:20:51.933Z,38.55
2022-12-19T17:45:20.929Z,44.70
2022-12-19T18:10:07.084Z,21.98
2022-12-19T18:13:09.446Z,32.83
2022-12-19T18:16:28.692Z,35.47
2022-12-19T18:30:01.135Z,34.97
2022-12-19T18:38:16.294Z,41.00
2022-12-19T18:41:19.962Z,35.05
2022-12-19T18:44:29.551Z,30.73
2022-12-19T18:47:31.836Z,29.70
2022-12-19T18:50:34.507Z,29.55
2022-12-19T18:53:36.780Z,42.78
2022-12-19T19:49:22.442Z,36.80
2022-12-19T20:02:23.802Z,18.08
2022-12-19T20:06:38.884Z,23.38
2022-12-19T20:20:05.713Z,26.35
2022-12-19T20:23:08.260Z,20.25
2022-12-19T20:26:17.956Z,28.92
2022-12-19T20:55:24.960Z,20.57
2022-12-19T20:58:29.351Z,21.35
2022-12-19T21:01:31.967Z,37.38
2022-12-19T21:05:18.853Z,20.73
2022-12-19T21:21:25.344Z,34.00
2022-12-19T21:24:29.292Z,42.33
2022-12-19T21:27:31.587Z,42.90
2022-12-19T21:30:33.893Z,37.33
2022-12-19T21:33:39.262Z,40.20
2022-12-19T21:36:47.363Z,38.05
2022-12-19T21:39:53.781Z,31.95
2022-12-19T21:42:58.482Z,27.65
2022-12-19T21:46:37.261Z,19.20
2022-12-19T21:49:50.487Z,39.30
2022-12-19T21:53:36.714Z,40.75
2022-12-19T22:00:34.404Z,46.53
2022-12-19T22:03:50.069Z,48.20
2022-12-19T22:07:11.819Z,38.60
2022-12-19T22:11:05.018Z,42.13
2022-12-19T22:18:57.042Z,45.17
2022-12-19T22:27:30.172Z,28.55
2022-12-19T22:31:30.175Z,28.45
2022-12-19T22:35:23.619Z,23.83
2022-12-19T22:39:58.043Z,28.13
2022-12-19T22:44:30.247Z,22.40
2022-12-19T22:48:13.209Z,32.25
2022-12-19T22:52:09.679Z,23.45
2022-12-19T23:23:03.284Z,22.33
2022-12-19T23:41:29.297Z,35.30
2022-12-19T23:44:43.321Z,35.10
2022-12-19T23:47:47.476Z,34.13
2022-12-19T23:51:06.939Z,25.25
2022-12-19T23:54:09.276Z,33.58
2022-12-19T23:57:11.555Z,31.55
